Time;durP1;ratioP1;P1;durP2;ratioP2;P2;SDS_P1;SDS_P2;PMS_P1;PMS_P2;Temp;Humidity;BMP_temperature;BMP_pressure;BME280_temperature;BME280_humidity;BME280_pressure;Samples;Min_cycle;Max_cycle;Signal;HPM_P1;HPM_P2
2023/04/02 00:00:20;;;;;;;13.10;9.60;;;;;;;6.63;91.84;99211.24;130951;1264;105732;-70
2023/04/02 00:04:13;;;;;;;13.40;9.40;;;;;;;6.59;92.11;99211.65;130878;1254;108020;-70
2023/04/02 00:07:32;;;;;;;12.40;9.60;;;;;;;6.60;91.54;99211.62;131006;1250;108740;-72
2023/04/02 00:10:39;;;;;;;13.40;8.70;;;;;;;6.67;91.57;99218.14;130949;1264;107483;-71
2023/04/02 00:13:46;;;;;;;11.90;8.50;;;;;;;6.63;91.12;99224.33;131212;1254;107489;-71
2023/04/02 00:16:54;;;;;;;12.60;9.30;;;;;;;6.61;91.47;99226.34;131116;1254;107381;-70
2023/04/02 00:20:05;;;;;;;12.50;9.50;;;;;;;6.58;91.52;99228.79;130987;1254;107597;-70
2023/04/02 00:23:14;;;;;;;14.40;10.90;;;;;;;6.52;92.14;99228.26;131025;1250;107390;-71
2023/04/02 00:26:31;;;;;;;13.50;9.00;;;;;;;6.45;92.17;99234.61;130998;1264;107557;-71
2023/04/02 00:29:44;;;;;;;12.40;8.50;;;;;;;6.37;92.69;99236.12;130951;1250;107410;-71
2023/04/02 00:32:51;;;;;;;14.00;10.00;;;;;;;6.31;92.70;99237.79;131177;1255;107374;-69
2023/04/02 00:35:57;;;;;;;14.00;10.30;;;;;;;6.30;93.09;99240.33;131035;1264;107995;-69
2023/04/02 00:39:07;;;;;;;12.30;9.40;;;;;;;6.29;92.93;99246.13;131062;1254;108081;-69
2023/04/02 00:42:17;;;;;;;12.50;8.80;;;;;;;6.24;92.98;99245.02;130893;1256;107510;-72
2023/04/02 00:45:28;;;;;;;10.60;8.10;;;;;;;6.21;92.91;99245.61;130899;1257;107280;-69
2023/04/02 00:48:40;;;;;;;;;;;;;;;6.23;92.53;99245.64;131018;1254;107574;-71
2023/04/02 00:51:52;;;;;;;13.40;9.60;;;;;;;6.26;92.62;99250.66;130972;1257;107565;-70
2023/04/02 00:55:05;;;;;;;14.60;10.50;;;;;;;6.20;93.48;99255.63;130839;1254;107516;-71
2023/04/02 00:58:23;;;;;;;11.70;8.50;;;;;;;6.15;92.82;99257.52;130808;1266;106431;-70
2023/04/02 01:01:35;;;;;;;11.50;8.10;;;;;;;6.10;93.04;99261.13;130930;1251;108019;-71
2023/04/02 01:04:41;;;;;;;13.80;10.10;;;;;;;6.04;94.19;99262.41;130804;1255;107481;-70
2023/04/02 01:08:02;;;;;;;13.80;9.70;;;;;;;5.99;94.25;99267.02;130851;1255;107947;-70
2023/04/02 01:11:22;;;;;;;13.20;10.00;;;;;;;5.98;93.64;99266.90;130712;1253;108114;-70
2023/04/02 01:14:51;;;;;;;14.20;9.90;;;;;;;5.99;93.94;99270.59;130787;1255;108198;-69
2023/04/02 01:18:18;;;;;;;12.20;9.40;;;;;;;5.96;94.35;99275.27;130463;1259;108124;-70
2023/04/02 01:21:41;;;;;;;16.50;11.00;;;;;;;5.91;94.40;99273.54;130802;1256;107432;-70
2023/04/02 01:24:47;;;;;;;15.20;11.20;;;;;;;5.95;93.93;99274.30;130526;1254;108128;-70
2023/04/02 01:27:57;;;;;;;16.40;11.50;;;;;;;5.95;94.09;99279.39;130723;1256;107420;-70
2023/04/02 01:31:03;;;;;;;16.20;11.10;;;;;;;5.89;94.51;99282.37;130777;1255;106938;-70
2023/04/02 01:34:11;;;;;;;15.30;10.00;;;;;;;5.85;93.94;99282.45;130680;1257;107548;-70
2023/04/02 01:37:33;;;;;;;16.80;11.30;;;;;;;5.85;94.23;99288.27;130773;1253;108032;-70
2023/04/02 01:40:47;;;;;;;15.40;11.30;;;;;;;5.81;94.02;99291.24;130865;1256;107520;-69
2023/04/02 01:43:58;;;;;;;16.00;10.90;;;;;;;5.80;93.56;99293.84;130789;1256;107942;-70
2023/04/02 01:47:07;;;;;;;16.40;9.90;;;;;;;5.85;93.60;99295.17;130706;1253;107957;-71
2023/04/02 01:50:25;;;;;;;14.40;9.70;;;;;;;5.85;93.59;99299.41;130446;1267;108112;-70
2023/04/02 01:53:32;;;;;;;16.10;11.00;;;;;;;5.76;94.34;99307.45;130545;1256;107406;-70
2023/04/02 01:56:38;;;;;;;14.70;10.20;;;;;;;5.69;93.92;99308.41;130648;1256;108030;-69
2023/04/02 01:59:44;;;;;;;15.80;10.30;;;;;;;5.70;93.88;99306.96;130862;1256;108062;-69
2023/04/02 02:02:51;;;;;;;12.10;8.80;;;;;;;5.65;94.05;99312.39;130956;1263;107650;-70
2023/04/02 02:05:59;;;;;;;13.80;8.80;;;;;;;5.62;93.99;99315.11;130808;1258;107237;-70
2023/04/02 02:09:08;;;;;;;16.30;11.40;;;;;;;5.60;94.11;99321.75;130864;1254;107934;-70
2023/04/02 02:12:15;;;;;;;14.70;10.30;;;;;;;5.56;94.48;99322.72;130855;1253;107461;-70
2023/04/02 02:15:23;;;;;;;15.60;10.60;;;;;;;5.60;93.99;99324.33;130878;1254;107227;-70
2023/04/02 02:18:29;;;;;;;12.80;8.00;;;;;;;5.61;93.78;99326.39;130882;1250;107353;-70
2023/04/02 02:21:42;;;;;;;12.40;8.50;;;;;;;5.62;93.47;99329.11;130771;1267;107877;-71
2023/04/02 02:24:49;;;;;;;12.70;8.90;;;;;;;5.64;93.37;99329.96;130909;1267;107921;-70
2023/04/02 02:28:02;;;;;;;13.40;8.80;;;;;;;5.69;93.31;99332.63;131210;1250;107495;-71
2023/04/02 02:31:16;;;;;;;12.00;8.50;;;;;;;5.65;93.03;99338.66;130833;1253;107517;-71
2023/04/02 02:34:31;;;;;;;10.30;7.20;;;;;;;5.51;93.35;99337.87;130953;1254;107455;-72
2023/04/02 02:37:41;;;;;;;9.80;6.80;;;;;;;5.41;93.40;99338.58;130834;1251;107567;-70
2023/04/02 02:40:53;;;;;;;11.70;7.40;;;;;;;5.43;93.15;99339.30;130827;1254;107648;-70
2023/04/02 02:44:05;;;;;;;9.70;7.10;;;;;;;5.47;93.46;99345.13;130780;1253;107495;-70
2023/04/02 02:47:14;;;;;;;9.50;7.60;;;;;;;5.45;93.13;99346.31;131168;1251;107527;-70
2023/04/02 02:50:23;;;;;;;9.20;6.80;;;;;;;5.43;93.12;99354.52;130961;1251;107583;-70
2023/04/02 02:53:30;;;;;;;10.20;7.10;;;;;;;5.38;93.44;99354.80;130935;1254;107602;-70
2023/04/02 02:56:41;;;;;;;10.60;7.60;;;;;;;5.35;93.44;99353.84;130936;1254;107536;-70
2023/04/02 02:59:48;;;;;;;10.30;7.50;;;;;;;5.46;93.10;99359.15;131033;1255;107634;-69
2023/04/02 03:02:56;;;;;;;9.40;7.40;;;;;;;5.52;92.91;99363.05;130962;1254;108016;-71
2023/04/02 03:06:07;;;;;;;8.10;5.70;;;;;;;5.51;92.72;99363.95;130848;1256;108142;-69
2023/04/02 03:09:22;;;;;;;10.60;6.40;;;;;;;5.50;92.46;99365.61;131146;1253;108034;-69
2023/04/02 03:12:40;;;;;;;9.20;5.90;;;;;;;5.46;92.43;99368.48;130860;1254;108339;-70
2023/04/02 03:15:55;;;;;;;8.30;6.30;;;;;;;5.45;92.50;99377.37;130828;1254;107372;-70
2023/04/02 03:19:07;;;;;;;8.00;5.50;;;;;;;5.44;92.25;99379.44;130907;1253;107988;-71
2023/04/02 03:22:21;;;;;;;8.00;5.80;;;;;;;5.51;92.01;99376.70;131076;1250;108123;-70
2023/04/02 03:25:35;;;;;;;7.40;4.50;;;;;;;5.55;91.89;99379.83;131054;1254;107451;-69
2023/04/02 03:28:46;;;;;;;5.30;4.20;;;;;;;5.53;91.48;99381.63;130789;1252;107452;-70
2023/04/02 03:31:57;;;;;;;6.90;4.50;;;;;;;5.52;91.45;99384.13;130914;1250;107373;-70
2023/04/02 03:35:09;;;;;;;5.40;4.50;;;;;;;5.53;91.45;99383.94;130949;1254;107875;-70
2023/04/02 03:38:20;;;;;;;7.70;5.70;;;;;;;5.59;91.50;99386.88;130941;1257;108120;-70
2023/04/02 03:41:33;;;;;;;7.90;6.50;;;;;;;5.53;91.35;99389.33;130982;1254;107056;-70
2023/04/02 03:44:47;;;;;;;7.30;5.60;;;;;;;5.39;91.60;99396.48;130942;1251;107432;-70
2023/04/02 03:48:01;;;;;;;8.00;5.50;;;;;;;5.37;91.65;99404.46;130867;1255;108098;-70
2023/04/02 03:51:07;;;;;;;;;;;;;;;5.38;91.55;99410.81;130838;1256;107582;-70
2023/04/02 03:54:16;;;;;;;8.90;6.60;;;;;;;5.35;91.90;99412.55;130996;1250;107245;-70
2023/04/02 03:57:29;;;;;;;7.80;6.10;;;;;;;5.32;91.94;99413.67;130807;1255;108015;-71
2023/04/02 04:00:36;;;;;;;;;;;;;;;5.21;91.82;99414.84;130887;1265;107562;-70
2023/04/02 04:03:45;;;;;;;9.30;6.40;;;;;;;5.19;92.01;99418.74;131107;1250;107002;-70
2023/04/02 04:06:53;;;;;;;7.80;5.90;;;;;;;5.20;92.09;99428.15;131129;1256;107595;-70
2023/04/02 04:10:01;;;;;;;8.00;6.00;;;;;;;5.17;91.93;99431.80;130837;1254;107346;-70
2023/04/02 04:13:11;;;;;;;7.80;5.40;;;;;;;5.17;91.90;99437.14;130903;1253;108186;-70
2023/04/02 04:16:20;;;;;;;9.20;6.20;;;;;;;5.19;92.10;99444.19;131153;1253;107555;-70
2023/04/02 04:19:33;;;;;;;7.90;5.70;;;;;;;5.14;91.66;99447.59;130905;1253;108384;-69
2023/04/02 04:22:40;;;;;;;8.70;6.50;;;;;;;5.16;91.91;99453.73;130958;1250;107446;-69
2023/04/02 04:26:08;;;;;;;9.90;7.20;;;;;;;5.16;91.81;99459.58;130975;1253;108006;-70
2023/04/02 04:29:31;;;;;;;9.00;6.30;;;;;;;5.07;91.92;99467.22;131043;1253;108026;-70
2023/04/02 04:32:41;;;;;;;9.40;6.10;;;;;;;5.05;91.94;99469.15;131121;1262;108399;-70
2023/04/02 04:35:59;;;;;;;9.30;6.60;;;;;;;5.16;92.00;99470.66;131103;1253;108053;-71
2023/04/02 04:39:14;;;;;;;8.90;6.90;;;;;;;5.19;91.71;99473.06;131077;1254;109163;-69
2023/04/02 04:42:25;;;;;;;8.60;5.90;;;;;;;5.17;91.69;99476.92;130821;1256;108061;-70
2023/04/02 04:45:41;;;;;;;8.60;6.00;;;;;;;5.16;91.45;99480.09;130875;1254;107426;-70
2023/04/02 04:48:54;;;;;;;7.70;5.10;;;;;;;5.15;91.40;99482.29;130849;1254;107553;-70
2023/04/02 04:52:08;;;;;;;5.00;3.90;;;;;;;5.11;91.21;99483.13;130918;1254;107451;-70
2023/04/02 04:55:35;;;;;;;7.20;4.70;;;;;;;5.11;91.33;99484.34;130956;1266;106457;-70
2023/04/02 04:58:46;;;;;;;7.10;4.40;;;;;;;5.05;90.99;99491.18;130756;1256;107419;-70
2023/04/02 05:01:57;;;;;;;5.70;4.20;;;;;;;4.96;90.97;99495.40;130888;1256;107476;-71
2023/04/02 05:05:04;;;;;;;7.80;4.30;;;;;;;4.90;91.14;99503.45;131077;1255;107657;-70
2023/04/02 05:08:19;;;;;;;5.10;4.00;;;;;;;4.89;91.42;99507.80;131174;1255;106482;-70
2023/04/02 05:11:32;;;;;;;5.40;4.00;;;;;;;4.93;91.63;99510.98;130964;1250;108015;-71
2023/04/02 05:14:49;;;;;;;5.30;4.20;;;;;;;4.87;91.45;99515.89;130907;1255;108100;-71
2023/04/02 05:18:05;;;;;;;8.70;5.70;;;;;;;4.86;91.52;99524.95;131154;1251;107536;-71
2023/04/02 05:21:20;;;;;;;6.00;4.40;;;;;;;4.89;91.57;99530.86;130854;1256;107625;-70
2023/04/02 05:24:53;;;;;;;7.70;4.80;;;;;;;4.92;91.67;99529.05;130958;1255;107450;-70
2023/04/02 05:28:05;;;;;;;8.10;5.00;;;;;;;4.90;91.57;99534.45;130629;1256;107530;-70
2023/04/02 05:31:16;;;;;;;17.70;10.60;;;;;;;4.93;91.54;99537.72;131124;1255;107487;-71
2023/04/02 05:34:27;;;;;;;5.40;4.10;;;;;;;4.92;91.33;99539.27;130713;1259;107522;-71
2023/04/02 05:37:34;;;;;;;5.00;4.00;;;;;;;4.92;91.35;99543.25;130936;1256;107409;-69
2023/04/02 05:40:46;;;;;;;5.40;4.10;;;;;;;4.92;91.24;99547.37;130839;1257;107214;-69
2023/04/02 05:43:59;;;;;;;4.90;3.70;;;;;;;4.86;91.36;99551.73;130959;1251;108081;-69
2023/04/02 05:47:11;;;;;;;4.80;3.70;;;;;;;4.83;91.31;99559.94;131004;1256;107464;-69
2023/04/02 05:50:26;;;;;;;6.60;3.80;;;;;;;4.86;91.26;99560.55;130974;1256;106387;-72
2023/04/02 05:53:37;;;;;;;6.20;4.50;;;;;;;4.86;90.91;99559.18;130890;1256;107927;-73
2023/04/02 05:56:47;;;;;;;4.30;3.50;;;;;;;4.80;91.07;99562.54;131202;1251;107265;-71
2023/04/02 05:59:58;;;;;;;4.50;3.80;;;;;;;4.75;91.14;99567.14;130601;1258;107595;-73
2023/04/02 06:03:14;;;;;;;10.20;7.80;;;;;;;4.77;91.17;99572.99;130967;1255;107255;-71
2023/04/02 06:06:28;;;;;;;3.70;2.70;;;;;;;4.78;90.98;99571.88;130880;1251;107538;-71
2023/04/02 06:09:41;;;;;;;5.20;3.80;;;;;;;4.70;90.79;99577.41;130932;1256;107445;-70
2023/04/02 06:12:52;;;;;;;13.00;10.30;;;;;;;4.65;90.78;99585.77;130741;1256;107536;-71
2023/04/02 06:15:57;;;;;;;;;;;;;;;4.65;90.94;99593.50;131167;1256;107433;-74
2023/04/02 06:19:15;;;;;;;4.50;3.60;;;;;;;4.67;90.78;99601.45;130888;1250;106789;-72
2023/04/02 06:22:32;;;;;;;4.50;3.00;;;;;;;4.65;90.79;99604.66;131226;1256;107518;-72
2023/04/02 06:25:42;;;;;;;3.90;3.10;;;;;;;4.68;90.78;99607.89;130823;1256;109382;-72
2023/04/02 06:28:52;;;;;;;6.90;3.70;;;;;;;4.74;90.56;99613.27;130933;1256;107544;-73
2023/04/02 06:32:03;;;;;;;4.00;3.20;;;;;;;4.79;90.63;99621.08;130905;1254;107460;-72
2023/04/02 06:35:12;;;;;;;4.30;3.10;;;;;;;4.85;90.11;99622.02;130788;1253;107271;-72
2023/04/02 06:38:24;;;;;;;5.70;3.60;;;;;;;4.95;90.51;99629.25;131105;1254;107392;-72
2023/04/02 06:41:30;;;;;;;4.90;3.60;;;;;;;4.96;89.82;99632.13;130952;1251;107548;-71
2023/04/02 06:44:55;;;;;;;4.00;3.00;;;;;;;4.88;89.29;99640.26;131349;1255;107586;-70
2023/04/02 06:48:21;;;;;;;5.90;4.70;;;;;;;4.81;89.48;99648.38;131305;1250;105679;-73
2023/04/02 06:51:36;;;;;;;7.90;4.70;;;;;;;4.77;89.21;99655.95;131355;1256;107654;-72
2023/04/02 06:54:44;;;;;;;13.90;7.70;;;;;;;4.69;89.21;99662.45;131060;1256;107591;-72
2023/04/02 06:57:50;;;;;;;6.80;4.90;;;;;;;4.62;89.33;99656.51;131085;1253;107524;-74
2023/04/02 07:00:57;;;;;;;7.70;4.60;;;;;;;4.57;89.53;99662.94;130962;1255;107397;-73
2023/04/02 07:04:20;;;;;;;23.50;11.70;;;;;;;4.56;89.73;99668.13;131463;1254;107983;-72
2023/04/02 07:07:28;;;;;;;8.80;4.50;;;;;;;4.61;89.76;99676.20;131238;1266;107586;-70
2023/04/02 07:10:35;;;;;;;7.60;4.60;;;;;;;4.68;89.35;99681.94;131013;1256;107488;-73
2023/04/02 07:13:40;;;;;;;13.10;8.70;;;;;;;4.66;88.76;99689.46;131069;1250;107619;-74
2023/04/02 07:16:46;;;;;;;5.20;3.70;;;;;;;4.52;88.73;99693.66;130996;1256;105579;-73
2023/04/02 07:19:51;;;;;;;9.10;5.90;;;;;;;4.40;88.93;99690.42;131111;1255;107573;-72
2023/04/02 07:22:59;;;;;;;10.20;7.60;;;;;;;4.41;89.49;99696.30;131237;1254;107453;-71
2023/04/02 07:26:07;;;;;;;4.70;3.40;;;;;;;4.45;89.56;99704.98;131146;1250;107248;-72
2023/04/02 07:29:17;;;;;;;5.70;3.90;;;;;;;4.44;89.40;99708.05;131376;1256;107253;-71
2023/04/02 07:32:22;;;;;;;7.10;4.60;;;;;;;4.43;89.49;99713.07;131293;1254;107534;-73
2023/04/02 07:35:29;;;;;;;6.90;4.00;;;;;;;4.46;89.61;99715.99;131346;1254;108656;-73
2023/04/02 07:38:35;;;;;;;5.80;3.70;;;;;;;4.50;89.58;99725.36;131034;1251;107558;-72
2023/04/02 07:41:54;;;;;;;5.70;3.90;;;;;;;4.55;89.31;99720.55;131124;1253;107297;-72
2023/04/02 07:45:00;;;;;;;7.90;5.20;;;;;;;4.56;89.27;99721.53;131805;1250;106898;-72
2023/04/02 07:48:09;;;;;;;8.50;5.30;;;;;;;4.56;89.23;99726.23;130993;1251;106074;-73
2023/04/02 07:51:19;;;;;;;8.50;5.20;;;;;;;4.65;89.43;99737.48;131063;1255;106681;-72
2023/04/02 07:54:26;;;;;;;9.10;5.50;;;;;;;4.75;88.98;99742.52;131005;1251;107225;-72
2023/04/02 07:57:31;;;;;;;7.50;5.20;;;;;;;4.72;88.68;99747.27;131075;1256;107254;-70
2023/04/02 08:00:37;;;;;;;8.60;5.30;;;;;;;4.68;88.94;99752.77;131153;1250;107648;-75
2023/04/02 08:03:43;;;;;;;9.70;6.20;;;;;;;4.75;89.23;99756.94;130953;1256;107551;-72
2023/04/02 08:06:51;;;;;;;10.30;6.00;;;;;;;4.87;89.19;99759.77;130979;1256;107475;-72
2023/04/02 08:09:57;;;;;;;12.90;8.50;;;;;;;5.04;89.08;99761.70;131170;1256;107392;-74
2023/04/02 08:13:02;;;;;;;42.20;37.60;;;;;;;5.16;88.41;99766.71;131184;1256;107505;-71
2023/04/02 08:16:09;;;;;;;12.50;8.40;;;;;;;5.19;88.33;99765.45;131265;1255;107558;-73
2023/04/02 08:19:15;;;;;;;6.80;4.70;;;;;;;5.23;88.08;99760.98;131198;1252;107484;-72
2023/04/02 08:22:21;;;;;;;5.90;4.10;;;;;;;5.26;87.45;99763.00;131075;1260;109340;-72
2023/04/02 08:25:26;;;;;;;90.00;64.10;;;;;;;5.36;87.71;99766.10;131167;1264;108821;-72
2023/04/02 08:28:32;;;;;;;10.50;7.60;;;;;;;5.43;87.16;99770.20;131185;1255;106932;-73
2023/04/02 08:31:37;;;;;;;10.90;7.70;;;;;;;5.43;86.64;99775.17;131086;1253;107563;-74
2023/04/02 08:34:43;;;;;;;12.50;8.70;;;;;;;5.40;87.07;99775.11;131160;1256;107543;-72
2023/04/02 08:37:49;;;;;;;21.70;15.70;;;;;;;5.41;86.83;99777.80;130994;1257;108117;-74
2023/04/02 08:41:00;;;;;;;14.80;10.10;;;;;;;5.37;86.52;99788.37;131139;1256;107561;-74
2023/04/02 08:44:28;;;;;;;16.50;10.80;;;;;;;5.34;87.12;99794.95;131142;1257;107646;-73
2023/04/02 08:47:36;;;;;;;20.60;12.10;;;;;;;5.50;87.39;99796.61;131203;1255;107425;-71
2023/04/02 08:50:44;;;;;;;41.00;27.60;;;;;;;5.62;86.76;99798.06;131047;1256;107279;-73
2023/04/02 08:53:51;;;;;;;8.20;5.70;;;;;;;5.72;85.76;99801.98;130975;1256;106568;-73
2023/04/02 08:57:04;;;;;;;7.70;6.00;;;;;;;5.73;85.86;99809.43;131040;1253;108640;-71
2023/04/02 09:00:22;;;;;;;;;;;;;;;5.71;85.80;99812.77;131239;1256;107529;-74
2023/04/02 09:03:32;;;;;;;8.60;6.40;;;;;;;5.72;85.00;99810.65;131249;1253;106420;-72
2023/04/02 09:06:38;;;;;;;9.60;7.60;;;;;;;5.65;84.38;99816.71;131128;1255;107505;-73
2023/04/02 09:09:47;;;;;;;4.90;3.30;;;;;;;5.52;83.74;99820.77;130963;1256;107405;-76
2023/04/02 09:12:54;;;;;;;21.00;14.30;;;;;;;5.46;84.79;99827.09;131041;1256;107671;-74
2023/04/02 09:16:07;;;;;;;9.40;6.10;;;;;;;5.43;83.98;99831.13;130985;1256;107388;-72
2023/04/02 09:19:22;;;;;;;8.60;5.70;;;;;;;5.43;84.99;99837.22;131031;1256;106410;-74
2023/04/02 09:22:30;;;;;;;5.80;4.50;;;;;;;5.42;84.56;99846.86;131189;1256;107548;-72
2023/04/02 09:25:43;;;;;;;8.70;6.10;;;;;;;5.38;83.63;99854.96;131188;1255;107623;-73
2023/04/02 09:28:47;;;;;;;;;;;;;;;5.29;83.50;99857.48;131188;1265;107530;-71
2023/04/02 09:32:00;;;;;;;5.90;3.80;;;;;;;5.21;83.94;99865.04;131293;1257;107240;-73
2023/04/02 09:35:14;;;;;;;7.00;4.60;;;;;;;5.29;84.85;99871.56;131036;1254;106689;-74
2023/04/02 09:38:22;;;;;;;6.00;5.10;;;;;;;5.42;83.86;99879.85;131296;1256;107362;-71
2023/04/02 09:41:32;;;;;;;4.50;3.20;;;;;;;5.40;83.23;99883.15;131245;1256;107398;-72
2023/04/02 09:44:37;;;;;;;4.80;3.90;;;;;;;5.36;82.97;99883.48;131440;1256;107521;-71
2023/04/02 09:47:43;;;;;;;5.80;4.30;;;;;;;5.41;83.93;99884.33;131088;1257;108117;-72
2023/04/02 09:50:48;;;;;;;27.80;14.50;;;;;;;5.46;82.86;99888.48;130836;1256;107531;-72
2023/04/02 09:54:09;;;;;;;6.50;4.60;;;;;;;5.51;83.23;99891.80;130787;1256;108035;-73
2023/04/02 09:57:26;;;;;;;5.00;3.80;;;;;;;5.54;82.66;99899.69;131079;1251;107484;-72
2023/04/02 10:00:31;;;;;;;9.20;7.30;;;;;;;5.51;82.72;99900.74;130981;1254;107433;-71
2023/04/02 10:03:37;;;;;;;6.30;4.30;;;;;;;5.54;82.36;99905.14;131017;1256;107589;-73
2023/04/02 10:06:52;;;;;;;4.50;3.40;;;;;;;5.53;82.83;99911.17;131114;1254;107568;-72
2023/04/02 10:10:00;;;;;;;3.90;3.10;;;;;;;5.63;82.50;99919.77;131059;1274;107254;-73
2023/04/02 10:13:15;;;;;;;3.60;2.90;;;;;;;5.63;81.60;99918.67;131083;1256;107630;-74
2023/04/02 10:16:31;;;;;;;3.40;2.80;;;;;;;5.58;81.04;99919.27;131033;1253;107376;-72
2023/04/02 10:19:40;;;;;;;6.50;4.00;;;;;;;5.65;81.67;99918.36;131035;1253;107450;-71
2023/04/02 10:22:46;;;;;;;5.10;3.70;;;;;;;5.70;80.85;99917.06;130949;1255;106461;-71
2023/04/02 10:26:01;;;;;;;19.60;17.30;;;;;;;5.79;81.49;99916.75;130951;1263;108690;-72
2023/04/02 10:29:26;;;;;;;5.20;3.70;;;;;;;5.95;82.68;99912.96;131053;1253;107245;-72
2023/04/02 10:32:37;;;;;;;5.10;4.00;;;;;;;6.28;81.39;99916.19;130964;1256;107268;-71
2023/04/02 10:35:50;;;;;;;6.10;4.20;;;;;;;6.44;81.30;99918.06;130957;1256;107560;-71
2023/04/02 10:39:03;;;;;;;6.30;4.90;;;;;;;6.59;80.44;99927.96;131103;1253;107588;-71
2023/04/02 10:42:21;;;;;;;15.00;9.10;;;;;;;6.57;79.69;99936.07;131107;1256;108628;-72
2023/04/02 10:45:37;;;;;;;5.30;3.90;;;;;;;6.44;79.02;99935.91;131136;1256;107280;-71
2023/04/02 10:48:51;;;;;;;7.40;5.20;;;;;;;6.30;79.11;99942.64;131013;1263;107371;-72
2023/04/02 10:52:02;;;;;;;6.40;4.60;;;;;;;6.12;78.18;99947.70;130961;1253;107450;-72
2023/04/02 10:55:14;;;;;;;6.60;4.70;;;;;;;5.92;78.43;99960.52;131114;1253;107644;-72
2023/04/02 10:58:25;;;;;;;5.60;3.60;;;;;;;5.72;78.34;99963.82;131038;1256;107226;-73
2023/04/02 11:01:32;;;;;;;6.00;4.20;;;;;;;5.53;78.90;99974.05;131106;1253;107694;-73
2023/04/02 11:04:45;;;;;;;4.60;3.10;;;;;;;5.57;79.41;99972.80;130817;1253;107413;-72
2023/04/02 11:07:57;;;;;;;5.10;4.20;;;;;;;5.67;80.17;99978.32;130821;1256;107578;-72
2023/04/02 11:11:07;;;;;;;5.60;4.10;;;;;;;5.75;80.03;99982.94;130802;1253;108379;-72
2023/04/02 11:14:16;;;;;;;5.10;3.70;;;;;;;5.76;79.72;99989.96;130845;1256;108266;-72
2023/04/02 11:17:23;;;;;;;8.50;5.70;;;;;;;5.69;79.76;99996.30;130794;1256;107675;-73
2023/04/02 11:20:58;;;;;;;6.70;4.10;;;;;;;5.63;79.77;99999.48;130784;1255;107257;-71
2023/04/02 11:24:04;;;;;;;8.00;4.70;;;;;;;5.66;80.27;100009.52;130974;1253;107512;-73
2023/04/02 11:27:18;;;;;;;3.90;2.90;;;;;;;5.69;79.21;100015.77;130934;1256;107737;-73
2023/04/02 11:30:26;;;;;;;5.40;3.70;;;;;;;5.56;79.22;100019.99;131011;1255;107481;-72
2023/04/02 11:33:42;;;;;;;5.80;4.40;;;;;;;5.48;78.97;100022.92;130838;1259;107526;-72
2023/04/02 11:37:08;;;;;;;7.30;4.80;;;;;;;5.48;79.97;100022.04;131170;1251;107537;-72
2023/04/02 11:40:50;;;;;;;8.40;5.80;;;;;;;5.45;79.63;100029.67;131117;1256;107531;-72
2023/04/02 11:44:02;;;;;;;6.70;4.60;;;;;;;5.46;80.17;100031.77;131187;1256;107587;-73
2023/04/02 11:47:20;;;;;;;6.20;4.40;;;;;;;5.48;80.23;100034.58;131140;1256;107517;-72
2023/04/02 11:50:36;;;;;;;9.40;5.70;;;;;;;5.42;80.29;100039.48;131368;1256;106345;-73
2023/04/02 11:53:43;;;;;;;15.70;11.20;;;;;;;5.40;80.26;100043.55;131173;1256;107264;-73
2023/04/02 11:56:58;;;;;;;11.80;7.10;;;;;;;5.40;79.84;100047.06;131155;1256;107501;-72
2023/04/02 12:00:21;;;;;;;9.30;5.70;;;;;;;5.41;79.80;100048.55;131222;1256;107365;-72
2023/04/02 12:03:51;;;;;;;11.60;7.50;;;;;;;5.39;79.85;100055.46;131133;1256;107453;-71
2023/04/02 12:07:11;;;;;;;6.70;4.50;;;;;;;5.38;79.40;100061.91;131119;1256;107512;-71
2023/04/02 12:10:20;;;;;;;11.60;6.70;;;;;;;5.26;79.66;100063.33;131099;1256;109864;-73
2023/04/02 12:13:53;;;;;;;10.50;5.70;;;;;;;5.21;79.97;100064.81;131258;1258;107586;-72
2023/04/02 12:16:59;;;;;;;8.20;4.80;;;;;;;5.17;80.38;100066.77;131099;1264;107679;-73
2023/04/02 12:20:21;;;;;;;7.50;5.20;;;;;;;4.99;80.16;100074.68;130978;1256;108577;-74
2023/04/02 12:23:30;;;;;;;7.00;4.20;;;;;;;4.91;80.99;100073.86;131086;1257;107469;-74
2023/04/02 12:26:37;;;;;;;10.30;6.20;;;;;;;4.97;81.13;100076.29;131064;1261;107873;-74
2023/04/02 12:29:43;;;;;;;13.20;9.00;;;;;;;5.07;80.99;100083.92;131080;1256;107373;-73
2023/04/02 12:32:49;;;;;;;20.10;10.80;;;;;;;5.11;81.07;100085.87;131050;1256;106449;-73
2023/04/02 12:35:57;;;;;;;13.10;7.60;;;;;;;5.10;81.32;100089.65;130968;1256;105672;-74
2023/04/02 12:39:03;;;;;;;14.40;8.00;;;;;;;5.12;81.72;100092.19;131009;1256;107567;-72
2023/04/02 12:42:27;;;;;;;8.60;5.70;;;;;;;5.11;81.49;100096.13;131062;1264;107437;-72
2023/04/02 12:45:35;;;;;;;6.50;4.10;;;;;;;5.21;81.35;100102.20;131176;1257;107515;-73
2023/04/02 12:48:41;;;;;;;6.90;4.50;;;;;;;5.23;81.12;100102.93;131061;1256;107285;-72
2023/04/02 12:51:47;;;;;;;9.70;5.20;;;;;;;5.32;81.23;100107.14;131099;1256;106655;-74
2023/04/02 12:54:54;;;;;;;5.30;3.00;;;;;;;5.36;80.97;100108.10;131174;1264;106802;-73
2023/04/02 12:58:01;;;;;;;4.70;3.10;;;;;;;5.40;81.01;100111.84;131121;1255;107674;-74
2023/04/02 13:01:18;;;;;;;5.80;3.90;;;;;;;5.43;80.81;100117.20;131026;1256;107493;-73
2023/04/02 13:04:23;;;;;;;12.70;8.20;;;;;;;5.37;80.74;100119.83;131260;1256;108424;-74
2023/04/02 13:07:32;;;;;;;27.20;11.90;;;;;;;5.39;81.27;100119.33;131020;1257;107228;-74
2023/04/02 13:10:37;;;;;;;6.60;4.80;;;;;;;5.46;81.06;100123.83;130958;1260;107527;-73
2023/04/02 13:13:46;;;;;;;6.50;5.00;;;;;;;5.44;81.01;100127.68;131056;1256;108573;-74
2023/04/02 13:16:52;;;;;;;11.40;8.60;;;;;;;5.38;81.15;100128.91;130995;1256;107424;-73
2023/04/02 13:20:30;;;;;;;15.00;10.10;;;;;;;5.27;81.77;100129.06;131081;1256;106404;-74
2023/04/02 13:23:38;;;;;;;6.80;5.00;;;;;;;5.19;81.72;100131.98;130944;1256;107558;-74
2023/04/02 13:26:44;;;;;;;7.70;5.10;;;;;;;5.15;82.05;100134.59;131091;1256;107645;-74
2023/04/02 13:29:50;;;;;;;6.90;5.20;;;;;;;5.12;82.05;100147.85;131049;1258;107336;-74
2023/04/02 13:32:56;;;;;;;8.10;4.40;;;;;;;5.11;82.03;100149.54;130936;1256;107630;-74
2023/04/02 13:36:01;;;;;;;7.20;5.00;;;;;;;5.11;82.01;100152.85;130924;1256;107512;-75
2023/04/02 13:39:07;;;;;;;7.80;5.20;;;;;;;5.14;82.23;100154.25;130919;1253;107550;-74
2023/04/02 13:42:13;;;;;;;8.20;5.90;;;;;;;5.05;81.94;100166.96;130896;1256;107582;-73
2023/04/02 13:45:26;;;;;;;16.30;10.00;;;;;;;4.92;81.69;100171.80;130970;1254;107291;-74
2023/04/02 13:48:31;;;;;;;7.50;5.60;;;;;;;4.77;82.00;100171.59;130974;1257;107245;-74
2023/04/02 13:51:39;;;;;;;8.10;5.70;;;;;;;4.78;82.08;100179.10;130961;1264;108703;-74
2023/04/02 13:54:49;;;;;;;8.20;5.00;;;;;;;4.88;81.62;100180.27;130945;1256;108150;-74
2023/04/02 13:57:57;;;;;;;7.90;5.80;;;;;;;4.78;81.60;100186.48;131086;1257;107245;-74
2023/04/02 14:01:03;;;;;;;7.10;4.50;;;;;;;4.72;81.50;100193.83;131028;1264;107396;-73
2023/04/02 14:04:10;;;;;;;8.40;6.40;;;;;;;4.65;81.68;100196.42;131091;1256;106436;-75
2023/04/02 14:07:31;;;;;;;9.40;6.60;;;;;;;4.58;82.01;100201.72;131149;1256;107399;-75
2023/04/02 14:10:51;;;;;;;11.20;8.10;;;;;;;4.45;81.72;100202.54;131005;1261;107629;-73
2023/04/02 14:14:16;;;;;;;6.70;5.20;;;;;;;4.27;81.66;100205.41;131210;1263;107383;-73
2023/04/02 14:17:29;;;;;;;13.60;10.10;;;;;;;4.14;81.98;100214.90;131216;1263;108853;-72
2023/04/02 14:20:44;;;;;;;8.30;5.30;;;;;;;4.00;81.80;100218.33;131292;1255;106981;-74
2023/04/02 14:24:04;;;;;;;6.10;4.50;;;;;;;3.84;81.80;100228.46;131263;1252;107682;-73
2023/04/02 14:27:23;;;;;;;11.00;6.90;;;;;;;3.79;81.97;100232.39;131126;1256;108581;-73
2023/04/02 14:30:42;;;;;;;10.90;7.10;;;;;;;3.77;81.71;100235.12;131055;1260;107461;-73
2023/04/02 14:33:57;;;;;;;15.70;9.70;;;;;;;3.57;81.74;100244.98;131201;1256;107415;-72
2023/04/02 14:37:12;;;;;;;10.00;6.50;;;;;;;3.37;82.04;100244.97;131206;1259;107280;-72
2023/04/02 14:40:27;;;;;;;11.30;7.20;;;;;;;3.20;82.32;100251.59;131095;1256;107668;-72
2023/04/02 14:43:43;;;;;;;8.50;6.10;;;;;;;3.06;82.48;100254.66;131263;1264;107361;-73
2023/04/02 14:46:49;;;;;;;11.70;8.10;;;;;;;3.00;82.65;100257.39;131215;1264;107786;-73